sensor_id;sensor_type;location;lat;lon;timestamp;pressure;altitude;pressure_sealevel;temperature;humidity
36664;BME280;53333;51.976;20.144;2022-08-25T00:02:16;100506.81;;;21.44;79.46
36664;BME280;53333;51.976;20.144;2022-08-25T00:04:49;100502.38;;;21.43;79.41
36664;BME280;53333;51.976;20.144;2022-08-25T00:07:24;100502.38;;;21.43;79.54
36664;BME280;53333;51.976;20.144;2022-08-25T00:09:58;100505.25;;;21.41;79.53
36664;BME280;53333;51.976;20.144;2022-08-25T00:12:32;100503.50;;;21.40;79.51
36664;BME280;53333;51.976;20.144;2022-08-25T00:15:08;100505.38;;;21.40;79.84
36664;BME280;53333;51.976;20.144;2022-08-25T00:17:43;100502.53;;;21.41;79.63
36664;BME280;53333;51.976;20.144;2022-08-25T00:20:17;100505.09;;;21.43;79.65
36664;BME280;53333;51.976;20.144;2022-08-25T00:22:51;100505.09;;;21.43;79.19
36664;BME280;53333;51.976;20.144;2022-08-25T00:25:25;100492.38;;;21.44;79.11
36664;BME280;53333;51.976;20.144;2022-08-25T00:27:59;100500.53;;;21.44;79.78
36664;BME280;53333;51.976;20.144;2022-08-25T00:30:40;100498.66;;;21.44;79.55
36664;BME280;53333;51.976;20.144;2022-08-25T00:33:17;100494.97;;;21.45;79.67
36664;BME280;53333;51.976;20.144;2022-08-25T00:35:51;100496.81;;;21.45;79.27
36664;BME280;53333;51.976;20.144;2022-08-25T00:38:26;100495.09;;;21.44;79.51
36664;BME280;53333;51.976;20.144;2022-08-25T00:40:59;100487.66;;;21.46;79.60
36664;BME280;53333;51.976;20.144;2022-08-25T00:43:45;100495.81;;;21.46;79.16
36664;BME280;53333;51.976;20.144;2022-08-25T00:46:28;100497.53;;;21.47;79.44
36664;BME280;53333;51.976;20.144;2022-08-25T00:49:06;100490.38;;;21.46;79.38
36664;BME280;53333;51.976;20.144;2022-08-25T00:52:02;100496.69;;;21.46;79.82
36664;BME280;53333;51.976;20.144;2022-08-25T00:54:38;100489.53;;;21.45;79.50
36664;BME280;53333;51.976;20.144;2022-08-25T00:57:16;100486.66;;;21.47;79.65
36664;BME280;53333;51.976;20.144;2022-08-25T01:00:12;100486.81;;;21.45;79.72
36664;BME280;53333;51.976;20.144;2022-08-25T01:02:47;100490.50;;;21.44;79.61
36664;BME280;53333;51.976;20.144;2022-08-25T01:05:21;100491.53;;;21.43;79.23
36664;BME280;53333;51.976;20.144;2022-08-25T01:07:59;100499.81;;;21.41;79.55
36664;BME280;53333;51.976;20.144;2022-08-25T01:10:40;100495.38;;;21.40;79.91
36664;BME280;53333;51.976;20.144;2022-08-25T01:13:17;100500.09;;;21.38;79.37
36664;BME280;53333;51.976;20.144;2022-08-25T01:15:54;100493.75;;;21.38;79.29
36664;BME280;53333;51.976;20.144;2022-08-25T01:18:41;100500.66;;;21.42;79.95
36664;BME280;53333;51.976;20.144;2022-08-25T01:21:19;100492.06;;;21.37;79.64
36664;BME280;53333;51.976;20.144;2022-08-25T01:23:54;100499.19;;;21.38;79.78
36664;BME280;53333;51.976;20.144;2022-08-25T01:26:32;100497.38;;;21.38;79.64
36664;BME280;53333;51.976;20.144;2022-08-25T01:29:08;100496.47;;;21.38;79.53
36664;BME280;53333;51.976;20.144;2022-08-25T01:31:58;100495.38;;;21.40;79.84
36664;BME280;53333;51.976;20.144;2022-08-25T01:34:34;100498.78;;;21.42;79.88
36664;BME280;53333;51.976;20.144;2022-08-25T01:37:11;100490.66;;;21.42;79.46
36664;BME280;53333;51.976;20.144;2022-08-25T01:39:45;100502.38;;;21.43;79.41
36664;BME280;53333;51.976;20.144;2022-08-25T01:42:27;100497.81;;;21.44;79.39
36664;BME280;53333;51.976;20.144;2022-08-25T01:45:07;100505.97;;;21.44;79.53
36664;BME280;53333;51.976;20.144;2022-08-25T01:47:41;100500.66;;;21.42;79.35
36664;BME280;53333;51.976;20.144;2022-08-25T01:50:16;100496.97;;;21.43;79.29
36664;BME280;53333;51.976;20.144;2022-08-25T01:52:54;100491.53;;;21.43;79.60
36664;BME280;53333;51.976;20.144;2022-08-25T01:55:28;100488.06;;;21.41;79.69
36664;BME280;53333;51.976;20.144;2022-08-25T01:58:25;100482.63;;;21.41;79.61
36664;BME280;53333;51.976;20.144;2022-08-25T02:01:03;100481.78;;;21.40;79.38
36664;BME280;53333;51.976;20.144;2022-08-25T02:03:39;100489.66;;;21.44;79.27
36664;BME280;53333;51.976;20.144;2022-08-25T02:06:19;100488.81;;;21.43;79.52
36664;BME280;53333;51.976;20.144;2022-08-25T02:09:05;100490.66;;;21.42;79.33
36664;BME280;53333;51.976;20.144;2022-08-25T02:11:41;100478.06;;;21.41;79.30
36664;BME280;53333;51.976;20.144;2022-08-25T02:14:16;100483.50;;;21.41;79.61
36664;BME280;53333;51.976;20.144;2022-08-25T02:16:53;100479.06;;;21.40;79.53
36664;BME280;53333;51.976;20.144;2022-08-25T02:19:31;100481.66;;;21.42;79.28
36664;BME280;53333;51.976;20.144;2022-08-25T02:22:05;100480.66;;;21.43;79.51
36664;BME280;53333;51.976;20.144;2022-08-25T02:24:40;100492.38;;;21.44;79.78
36664;BME280;53333;51.976;20.144;2022-08-25T02:27:14;100481.50;;;21.44;79.32
36664;BME280;53333;51.976;20.144;2022-08-25T02:29:47;100480.66;;;21.43;79.86
36664;BME280;53333;51.976;20.144;2022-08-25T02:32:21;100485.06;;;21.44;79.74
36664;BME280;53333;51.976;20.144;2022-08-25T02:34:57;100477.94;;;21.43;79.55
36664;BME280;53333;51.976;20.144;2022-08-25T02:37:31;100468.91;;;21.42;79.84
36664;BME280;53333;51.976;20.144;2022-08-25T02:40:08;100467.94;;;21.44;80.03
36664;BME280;53333;51.976;20.144;2022-08-25T02:42:42;100478.66;;;21.45;79.52
36664;BME280;53333;51.976;20.144;2022-08-25T02:45:16;100481.22;;;21.47;79.88
36664;BME280;53333;51.976;20.144;2022-08-25T02:47:49;100474.06;;;21.46;79.77
36664;BME280;53333;51.976;20.144;2022-08-25T02:50:23;100473.09;;;21.47;79.76
36664;BME280;53333;51.976;20.144;2022-08-25T02:52:57;100472.97;;;21.48;79.36
36664;BME280;53333;51.976;20.144;2022-08-25T02:55:32;100473.81;;;21.49;79.38
36664;BME280;53333;51.976;20.144;2022-08-25T02:58:06;100468.25;;;21.50;79.29
36664;BME280;53333;51.976;20.144;2022-08-25T03:00:40;100467.28;;;21.51;79.81
36664;BME280;53333;51.976;20.144;2022-08-25T03:03:14;100464.56;;;21.51;79.71
36664;BME280;53333;51.976;20.144;2022-08-25T03:05:51;100461.00;;;21.51;79.44
36664;BME280;53333;51.976;20.144;2022-08-25T03:08:25;100455.41;;;21.52;79.49
36664;BME280;53333;51.976;20.144;2022-08-25T03:11:00;100453.53;;;21.53;79.31
36664;BME280;53333;51.976;20.144;2022-08-25T03:13:34;100457.97;;;21.54;79.76
36664;BME280;53333;51.976;20.144;2022-08-25T03:16:08;100454.25;;;21.55;79.60
36664;BME280;53333;51.976;20.144;2022-08-25T03:18:43;100466.84;;;21.56;79.35
36664;BME280;53333;51.976;20.144;2022-08-25T03:21:17;100458.56;;;21.57;79.85
36664;BME280;53333;51.976;20.144;2022-08-25T03:23:52;100454.84;;;21.58;79.26
36664;BME280;53333;51.976;20.144;2022-08-25T03:26:27;100458.56;;;21.57;79.81
36664;BME280;53333;51.976;20.144;2022-08-25T03:29:18;100467.56;;;21.58;79.51
36664;BME280;53333;51.976;20.144;2022-08-25T03:31:53;100459.56;;;21.56;79.55
36664;BME280;53333;51.976;20.144;2022-08-25T03:34:29;100464.84;;;21.58;79.50
36664;BME280;53333;51.976;20.144;2022-08-25T03:37:03;100464.00;;;21.57;79.60
36664;BME280;53333;51.976;20.144;2022-08-25T03:39:39;100459.41;;;21.58;79.75
36664;BME280;53333;51.976;20.144;2022-08-25T03:42:15;100463.88;;;21.59;79.80
36664;BME280;53333;51.976;20.144;2022-08-25T03:44:48;100470.16;;;21.59;79.80
36664;BME280;53333;51.976;20.144;2022-08-25T03:47:22;100456.00;;;21.56;79.83
36664;BME280;53333;51.976;20.144;2022-08-25T03:50:00;100469.72;;;21.54;79.76
36664;BME280;53333;51.976;20.144;2022-08-25T03:52:34;100461.56;;;21.54;79.50
36664;BME280;53333;51.976;20.144;2022-08-25T03:55:13;100465.13;;;21.55;79.73
36664;BME280;53333;51.976;20.144;2022-08-25T03:57:48;100464.28;;;21.54;79.64
36664;BME280;53333;51.976;20.144;2022-08-25T04:00:22;100467.97;;;21.53;79.86
36664;BME280;53333;51.976;20.144;2022-08-25T04:02:56;100465.25;;;21.53;79.62
36664;BME280;53333;51.976;20.144;2022-08-25T04:05:29;100464.28;;;21.54;79.42
36664;BME280;53333;51.976;20.144;2022-08-25T04:08:03;100466.28;;;21.52;79.78
36664;BME280;53333;51.976;20.144;2022-08-25T04:10:39;100462.69;;;21.52;79.36
36664;BME280;53333;51.976;20.144;2022-08-25T04:13:14;100459.97;;;21.52;79.43
36664;BME280;53333;51.976;20.144;2022-08-25T04:15:47;100465.41;;;21.52;79.48
36664;BME280;53333;51.976;20.144;2022-08-25T04:18:21;100465.53;;;21.50;79.52
36664;BME280;53333;51.976;20.144;2022-08-25T04:21:01;100459.25;;;21.50;79.49
36664;BME280;53333;51.976;20.144;2022-08-25T04:23:35;100465.53;;;21.50;79.54
36664;BME280;53333;51.976;20.144;2022-08-25T04:26:11;100470.13;;;21.50;79.42
36664;BME280;53333;51.976;20.144;2022-08-25T04:28:48;100471.72;;;21.52;79.52
36664;BME280;53333;51.976;20.144;2022-08-25T04:31:22;100477.28;;;21.51;79.19
36664;BME280;53333;51.976;20.144;2022-08-25T04:33:56;100470.84;;;21.52;79.72
36664;BME280;53333;51.976;20.144;2022-08-25T04:36:30;100465.41;;;21.52;79.30
36664;BME280;53333;51.976;20.144;2022-08-25T04:39:04;100469.00;;;21.52;79.41
36664;BME280;53333;51.976;20.144;2022-08-25T04:41:38;100471.56;;;21.54;79.65
36664;BME280;53333;51.976;20.144;2022-08-25T04:44:13;100471.41;;;21.55;79.73
36664;BME280;53333;51.976;20.144;2022-08-25T04:46:47;100470.16;;;21.59;79.86
36664;BME280;53333;51.976;20.144;2022-08-25T04:49:21;100469.88;;;21.63;79.27
36664;BME280;53333;51.976;20.144;2022-08-25T04:51:55;100462.28;;;21.66;79.14
36664;BME280;53333;51.976;20.144;2022-08-25T04:54:29;100465.59;;;21.70;79.51
36664;BME280;53333;51.976;20.144;2022-08-25T04:57:08;100472.34;;;21.75;79.37
36664;BME280;53333;51.976;20.144;2022-08-25T04:59:43;100465.91;;;21.76;79.11
36664;BME280;53333;51.976;20.144;2022-08-25T05:02:17;100470.06;;;21.81;79.25
36664;BME280;53333;51.976;20.144;2022-08-25T05:04:51;100481.34;;;21.86;79.07
36664;BME280;53333;51.976;20.144;2022-08-25T05:07:24;100478.22;;;21.90;79.19
36664;BME280;53333;51.976;20.144;2022-08-25T05:09:58;100478.81;;;21.94;78.65
36664;BME280;53333;51.976;20.144;2022-08-25T05:12:32;100473.09;;;21.97;78.75
36664;BME280;53333;51.976;20.144;2022-08-25T05:15:09;100472.97;;;21.99;79.00
36664;BME280;53333;51.976;20.144;2022-08-25T05:18:00;100471.66;;;22.03;78.89
36664;BME280;53333;51.976;20.144;2022-08-25T05:20:35;100472.22;;;22.06;78.69
36664;BME280;53333;51.976;20.144;2022-08-25T05:23:09;100476.41;;;22.10;78.76
36664;BME280;53333;51.976;20.144;2022-08-25T05:25:43;100481.00;;;22.20;78.68
36664;BME280;53333;51.976;20.144;2022-08-25T05:28:17;100476.69;;;22.27;78.42
36664;BME280;53333;51.976;20.144;2022-08-25T05:30:57;100472.28;;;22.36;78.27
36664;BME280;53333;51.976;20.144;2022-08-25T05:33:31;100471.72;;;22.42;78.64
36664;BME280;53333;51.976;20.144;2022-08-25T05:36:05;100473.56;;;22.51;78.00
36664;BME280;53333;51.976;20.144;2022-08-25T05:38:40;100479.84;;;22.61;77.78
36664;BME280;53333;51.976;20.144;2022-08-25T05:41:16;100472.94;;;22.77;77.97
36664;BME280;53333;51.976;20.144;2022-08-25T05:43:50;100474.91;;;22.94;77.71
36664;BME280;53333;51.976;20.144;2022-08-25T05:46:25;100467.03;;;23.11;77.44
36664;BME280;53333;51.976;20.144;2022-08-25T05:49:02;100473.97;;;23.33;76.75
36664;BME280;53333;51.976;20.144;2022-08-25T05:51:36;100480.00;;;23.54;76.28
36664;BME280;53333;51.976;20.144;2022-08-25T05:54:10;100484.97;;;23.69;75.94
36664;BME280;53333;51.976;20.144;2022-08-25T05:56:43;100481.03;;;23.81;75.15
36664;BME280;53333;51.976;20.144;2022-08-25T05:59:17;100474.38;;;23.93;74.65
36664;BME280;53333;51.976;20.144;2022-08-25T06:01:52;100466.81;;;24.05;74.80
36664;BME280;53333;51.976;20.144;2022-08-25T06:04:43;100467.63;;;24.16;74.33
36664;BME280;53333;51.976;20.144;2022-08-25T06:07:17;100464.38;;;24.20;73.49
36664;BME280;53333;51.976;20.144;2022-08-25T06:09:50;100462.22;;;24.24;73.45
36664;BME280;53333;51.976;20.144;2022-08-25T06:12:24;100471.97;;;24.26;73.59
36664;BME280;53333;51.976;20.144;2022-08-25T06:14:58;100471.09;;;24.26;73.21
36664;BME280;53333;51.976;20.144;2022-08-25T06:17:33;100466.34;;;24.28;73.01
36664;BME280;53333;51.976;20.144;2022-08-25T06:20:13;100466.88;;;24.32;73.06
36664;BME280;53333;51.976;20.144;2022-08-25T06:22:48;100472.03;;;24.35;73.21
36664;BME280;53333;51.976;20.144;2022-08-25T06:25:23;100473.59;;;24.37;73.52
36664;BME280;53333;51.976;20.144;2022-08-25T06:27:57;100482.31;;;24.41;72.96
36664;BME280;53333;51.976;20.144;2022-08-25T06:30:31;100475.91;;;24.50;72.71
36664;BME280;53333;51.976;20.144;2022-08-25T06:33:07;100479.63;;;24.59;73.12
36664;BME280;53333;51.976;20.144;2022-08-25T06:35:42;100478.66;;;24.68;72.59
36664;BME280;53333;51.976;20.144;2022-08-25T06:38:16;100486.72;;;24.78;72.44
36664;BME280;53333;51.976;20.144;2022-08-25T06:40:50;100469.25;;;24.89;72.27
36664;BME280;53333;51.976;20.144;2022-08-25T06:43:24;100474.28;;;25.01;72.02
36664;BME280;53333;51.976;20.144;2022-08-25T06:45:58;100468.91;;;25.18;71.47
36664;BME280;53333;51.976;20.144;2022-08-25T06:48:33;100481.13;;;25.32;71.50
36664;BME280;53333;51.976;20.144;2022-08-25T06:51:11;100470.47;;;25.47;70.78
36664;BME280;53333;51.976;20.144;2022-08-25T06:53:47;100478.00;;;25.53;70.65
36664;BME280;53333;51.976;20.144;2022-08-25T06:56:21;100479.03;;;25.60;70.57
36664;BME280;53333;51.976;20.144;2022-08-25T06:58:55;100478.38;;;25.66;70.47
36664;BME280;53333;51.976;20.144;2022-08-25T07:01:29;100484.03;;;25.73;69.84
36664;BME280;53333;51.976;20.144;2022-08-25T07:04:05;100482.53;;;25.79;69.39
36664;BME280;53333;51.976;20.144;2022-08-25T07:06:44;100486.47;;;25.84;69.62
36664;BME280;53333;51.976;20.144;2022-08-25T07:09:18;100483.59;;;25.94;69.12
36664;BME280;53333;51.976;20.144;2022-08-25T07:11:51;100484.84;;;26.08;69.12
36664;BME280;53333;51.976;20.144;2022-08-25T07:14:25;100484.19;;;26.22;68.84
36664;BME280;53333;51.976;20.144;2022-08-25T07:16:59;100493.97;;;26.33;68.53
36664;BME280;53333;51.976;20.144;2022-08-25T07:19:44;100482.69;;;26.44;67.07
36664;BME280;53333;51.976;20.144;2022-08-25T07:22:19;100487.47;;;26.51;66.88
36664;BME280;53333;51.976;20.144;2022-08-25T07:24:56;100493.13;;;26.66;66.66
36664;BME280;53333;51.976;20.144;2022-08-25T07:27:30;100489.03;;;26.78;66.53
36664;BME280;53333;51.976;20.144;2022-08-25T07:30:06;100497.38;;;26.93;66.23
36664;BME280;53333;51.976;20.144;2022-08-25T07:33:01;100498.41;;;27.08;65.43
36664;BME280;53333;51.976;20.144;2022-08-25T07:35:42;100495.63;;;27.25;64.95
36664;BME280;53333;51.976;20.144;2022-08-25T07:38:20;100500.91;;;27.34;64.10
36664;BME280;53333;51.976;20.144;2022-08-25T07:41:02;100498.53;;;27.31;63.85
36664;BME280;53333;51.976;20.144;2022-08-25T07:43:36;100514.44;;;27.28;63.49
36664;BME280;53333;51.976;20.144;2022-08-25T07:46:10;100508.63;;;27.39;63.63
36664;BME280;53333;51.976;20.144;2022-08-25T07:48:44;100516.38;;;27.75;63.07
36664;BME280;53333;51.976;20.144;2022-08-25T07:51:25;100506.00;;;28.02;62.44
36664;BME280;53333;51.976;20.144;2022-08-25T07:53:59;100510.28;;;28.27;61.64
36664;BME280;53333;51.976;20.144;2022-08-25T07:56:34;100510.84;;;28.69;60.96
36664;BME280;53333;51.976;20.144;2022-08-25T07:59:08;100511.88;;;29.06;59.89
36664;BME280;53333;51.976;20.144;2022-08-25T08:01:44;100512.47;;;29.46;58.99
36664;BME280;53333;51.976;20.144;2022-08-25T08:04:18;100509.63;;;29.84;56.93
36664;BME280;53333;51.976;20.144;2022-08-25T08:06:53;100507.53;;;30.23;56.42
36664;BME280;53333;51.976;20.144;2022-08-25T08:09:27;100514.13;;;30.65;55.56
36664;BME280;53333;51.976;20.144;2022-08-25T08:12:02;100506.63;;;31.02;53.45
36664;BME280;53333;51.976;20.144;2022-08-25T08:14:36;100519.16;;;31.40;52.11
36664;BME280;53333;51.976;20.144;2022-08-25T08:17:16;100512.19;;;31.79;50.24
36664;BME280;53333;51.976;20.144;2022-08-25T08:19:50;100511.50;;;32.18;49.65
36664;BME280;53333;51.976;20.144;2022-08-25T08:22:26;100507.91;;;32.51;48.42
36664;BME280;53333;51.976;20.144;2022-08-25T08:25:01;100507.56;;;32.81;48.12
36664;BME280;53333;51.976;20.144;2022-08-25T08:27:39;100503.91;;;33.01;46.85
36664;BME280;53333;51.976;20.144;2022-08-25T08:30:14;100500.91;;;33.16;46.23
36664;BME280;53333;51.976;20.144;2022-08-25T08:32:48;100502.41;;;33.25;46.89
36664;BME280;53333;51.976;20.144;2022-08-25T08:35:42;100501.28;;;33.46;45.42
36664;BME280;53333;51.976;20.144;2022-08-25T08:38:17;100494.56;;;33.87;44.70
36664;BME280;53333;51.976;20.144;2022-08-25T08:41:05;100504.00;;;34.25;44.15
36664;BME280;53333;51.976;20.144;2022-08-25T08:44:05;100504.66;;;34.52;44.38
36664;BME280;53333;51.976;20.144;2022-08-25T08:46:49;100496.59;;;34.76;43.29
36664;BME280;53333;51.976;20.144;2022-08-25T08:49:34;100492.78;;;34.95;42.69
36664;BME280;53333;51.976;20.144;2022-08-25T08:52:09;100499.25;;;35.33;43.55
36664;BME280;53333;51.976;20.144;2022-08-25T08:54:54;100491.34;;;35.36;42.42
36664;BME280;53333;51.976;20.144;2022-08-25T08:57:34;100488.72;;;35.41;41.77
36664;BME280;53333;51.976;20.144;2022-08-25T09:00:09;100492.75;;;35.45;40.94
36664;BME280;53333;51.976;20.144;2022-08-25T09:02:48;100483.91;;;35.67;41.17
36664;BME280;53333;51.976;20.144;2022-08-25T09:05:26;100482.56;;;35.76;40.87
36664;BME280;53333;51.976;20.144;2022-08-25T09:08:04;100476.94;;;35.95;40.40
36664;BME280;53333;51.976;20.144;2022-08-25T09:10:56;100485.13;;;36.20;39.89
36664;BME280;53333;51.976;20.144;2022-08-25T09:13:43;100476.69;;;36.69;38.27
36664;BME280;53333;51.976;20.144;2022-08-25T09:16:23;100476.13;;;37.14;38.06
36664;BME280;53333;51.976;20.144;2022-08-25T09:19:29;100482.47;;;37.62;36.11
36664;BME280;53333;51.976;20.144;2022-08-25T09:22:09;100477.88;;;37.68;35.63
36664;BME280;53333;51.976;20.144;2022-08-25T09:25:11;100474.72;;;37.64;35.51
36664;BME280;53333;51.976;20.144;2022-08-25T09:28:06;100477.41;;;38.00;34.63
36664;BME280;53333;51.976;20.144;2022-08-25T09:30:43;100474.47;;;38.52;34.52
36664;BME280;53333;51.976;20.144;2022-08-25T09:33:22;100473.41;;;38.87;34.17
36664;BME280;53333;51.976;20.144;2022-08-25T09:35:56;100477.53;;;39.40;32.56
36664;BME280;53333;51.976;20.144;2022-08-25T09:38:35;100484.03;;;39.90;32.56
36664;BME280;53333;51.976;20.144;2022-08-25T09:41:09;100480.63;;;40.70;30.49
36664;BME280;53333;51.976;20.144;2022-08-25T09:43:52;100476.00;;;41.77;29.13
36664;BME280;53333;51.976;20.144;2022-08-25T09:46:28;100469.66;;;42.84;27.31
36664;BME280;53333;51.976;20.144;2022-08-25T09:49:11;100468.81;;;43.90;26.39
36664;BME280;53333;51.976;20.144;2022-08-25T09:51:45;100474.81;;;44.87;25.25
36664;BME280;53333;51.976;20.144;2022-08-25T09:54:26;100468.13;;;45.79;23.89
36664;BME280;53333;51.976;20.144;2022-08-25T09:57:31;100468.75;;;46.66;23.13
36664;BME280;53333;51.976;20.144;2022-08-25T10:00:12;100466.25;;;47.25;22.44
36664;BME280;53333;51.976;20.144;2022-08-25T10:03:03;100465.84;;;47.96;21.66
36664;BME280;53333;51.976;20.144;2022-08-25T10:05:56;100468.72;;;48.64;20.50
36664;BME280;53333;51.976;20.144;2022-08-25T10:08:35;100460.22;;;49.27;20.15
36664;BME280;53333;51.976;20.144;2022-08-25T10:11:13;100454.31;;;49.72;18.82
36664;BME280;53333;51.976;20.144;2022-08-25T10:14:00;100450.38;;;50.26;18.98
36664;BME280;53333;51.976;20.144;2022-08-25T10:16:35;100451.16;;;50.70;17.41
36664;BME280;53333;51.976;20.144;2022-08-25T10:19:31;100442.50;;;51.05;17.44
36664;BME280;53333;51.976;20.144;2022-08-25T10:22:07;100439.56;;;51.22;16.49
36664;BME280;53333;51.976;20.144;2022-08-25T10:24:42;100445.22;;;51.31;16.42
36664;BME280;53333;51.976;20.144;2022-08-25T10:27:24;100433.47;;;51.41;17.00
36664;BME280;53333;51.976;20.144;2022-08-25T10:30:07;100431.72;;;51.49;16.68
36664;BME280;53333;51.976;20.144;2022-08-25T10:33:08;100431.63;;;51.67;17.33
36664;BME280;53333;51.976;20.144;2022-08-25T10:35:54;100431.47;;;51.84;16.84
36664;BME280;53333;51.976;20.144;2022-08-25T10:38:37;100419.25;;;52.05;17.21
36664;BME280;53333;51.976;20.144;2022-08-25T10:41:41;100422.47;;;52.37;16.61
36664;BME280;53333;51.976;20.144;2022-08-25T10:44:24;100419.56;;;52.58;16.00
36664;BME280;53333;51.976;20.144;2022-08-25T10:47:30;100420.78;;;52.81;17.36
36664;BME280;53333;51.976;20.144;2022-08-25T10:50:13;100412.00;;;52.87;15.49
36664;BME280;53333;51.976;20.144;2022-08-25T10:53:02;100405.75;;;52.93;14.91
36664;BME280;53333;51.976;20.144;2022-08-25T10:55:45;100401.34;;;52.96;15.50
36664;BME280;53333;51.976;20.144;2022-08-25T10:58:39;100400.28;;;53.00;15.90
36664;BME280;53333;51.976;20.144;2022-08-25T11:01:27;100396.00;;;53.07;15.50
36664;BME280;53333;51.976;20.144;2022-08-25T11:04:19;100394.84;;;53.08;14.72
36664;BME280;53333;51.976;20.144;2022-08-25T11:07:02;100392.91;;;52.99;14.62
36664;BME280;53333;51.976;20.144;2022-08-25T11:09:40;100396.47;;;52.84;15.04
36664;BME280;53333;51.976;20.144;2022-08-25T11:12:21;100386.50;;;52.78;14.93
36664;BME280;53333;51.976;20.144;2022-08-25T11:15:01;100384.09;;;52.67;15.33
36664;BME280;53333;51.976;20.144;2022-08-25T11:17:40;100384.66;;;52.48;15.82
36664;BME280;53333;51.976;20.144;2022-08-25T11:20:17;100376.16;;;52.27;15.33
36664;BME280;53333;51.976;20.144;2022-08-25T11:23:07;100374.19;;;52.07;16.05
36664;BME280;53333;51.976;20.144;2022-08-25T11:25:51;100360.16;;;51.68;16.20
36664;BME280;53333;51.976;20.144;2022-08-25T11:28:31;100364.56;;;51.57;16.00
36664;BME280;53333;51.976;20.144;2022-08-25T11:31:09;100368.19;;;51.45;16.55
36664;BME280;53333;51.976;20.144;2022-08-25T11:33:44;100362.16;;;51.26;16.00
36664;BME280;53333;51.976;20.144;2022-08-25T11:36:27;100358.50;;;50.95;16.15
36664;BME280;53333;51.976;20.144;2022-08-25T11:39:13;100364.84;;;50.45;17.05
36664;BME280;53333;51.976;20.144;2022-08-25T11:41:56;100360.25;;;49.70;17.15
36664;BME280;53333;51.976;20.144;2022-08-25T11:44:45;100354.00;;;48.76;17.80
36664;BME280;53333;51.976;20.144;2022-08-25T11:47:36;100353.09;;;47.81;18.49
36664;BME280;53333;51.976;20.144;2022-08-25T11:50:28;100339.75;;;46.94;20.00
36664;BME280;53333;51.976;20.144;2022-08-25T11:53:17;100350.03;;;46.11;20.57
36664;BME280;53333;51.976;20.144;2022-08-25T11:56:02;100328.97;;;45.32;21.54
36664;BME280;53333;51.976;20.144;2022-08-25T11:58:40;100332.31;;;44.67;22.56
36664;BME280;53333;51.976;20.144;2022-08-25T12:04:42;100335.88;;;43.29;24.30
36664;BME280;53333;51.976;20.144;2022-08-25T12:07:23;100316.97;;;42.85;25.07
36664;BME280;53333;51.976;20.144;2022-08-25T12:10:21;100319.03;;;42.33;24.59
36664;BME280;53333;51.976;20.144;2022-08-25T12:13:04;100316.50;;;41.85;25.02
36664;BME280;53333;51.976;20.144;2022-08-25T12:15:58;100317.84;;;41.36;26.58
36664;BME280;53333;51.976;20.144;2022-08-25T12:18:44;100316.56;;;40.96;26.01
36664;BME280;53333;51.976;20.144;2022-08-25T12:21:34;100320.28;;;40.64;26.68
36664;BME280;53333;51.976;20.144;2022-08-25T12:24:11;100313.34;;;40.29;26.03
36664;BME280;53333;51.976;20.144;2022-08-25T12:26:56;100314.44;;;39.96;27.68
36664;BME280;53333;51.976;20.144;2022-08-25T12:29:39;100318.13;;;39.69;28.45
36664;BME280;53333;51.976;20.144;2022-08-25T12:32:32;100315.88;;;39.44;27.88
36664;BME280;53333;51.976;20.144;2022-08-25T12:35:30;100308.88;;;39.14;27.93
36664;BME280;53333;51.976;20.144;2022-08-25T12:38:07;100304.88;;;38.88;26.23
36664;BME280;53333;51.976;20.144;2022-08-25T12:40:56;100301.50;;;38.64;26.10
36664;BME280;53333;51.976;20.144;2022-08-25T12:43:33;100308.63;;;38.38;26.89
36664;BME280;53333;51.976;20.144;2022-08-25T12:46:38;100296.41;;;38.22;28.00
36664;BME280;53333;51.976;20.144;2022-08-25T12:49:29;100295.16;;;38.01;28.22
36664;BME280;53333;51.976;20.144;2022-08-25T12:52:06;100293.75;;;37.81;28.69
36664;BME280;53333;51.976;20.144;2022-08-25T12:54:46;100290.56;;;37.60;25.12
36664;BME280;53333;51.976;20.144;2022-08-25T12:57:33;100285.09;;;37.37;24.97
36664;BME280;53333;51.976;20.144;2022-08-25T13:00:19;100288.00;;;37.13;24.92
36664;BME280;53333;51.976;20.144;2022-08-25T13:06:18;100285.69;;;36.58;25.35
36664;BME280;53333;51.976;20.144;2022-08-25T13:09:20;100286.41;;;36.29;24.90
36664;BME280;53333;51.976;20.144;2022-08-25T13:12:04;100287.72;;;36.03;24.12
36664;BME280;53333;51.976;20.144;2022-08-25T13:14:43;100285.22;;;35.71;24.09
36664;BME280;53333;51.976;20.144;2022-08-25T13:17:25;100285.63;;;35.44;23.69
36664;BME280;53333;51.976;20.144;2022-08-25T13:20:17;100286.97;;;35.23;24.76
36664;BME280;53333;51.976;20.144;2022-08-25T13:22:59;100289.38;;;35.01;24.11
36664;BME280;53333;51.976;20.144;2022-08-25T13:25:45;100288.19;;;34.79;24.14
36664;BME280;53333;51.976;20.144;2022-08-25T13:28:28;100281.97;;;34.58;24.22
36664;BME280;53333;51.976;20.144;2022-08-25T13:31:06;100281.13;;;34.39;24.53
36664;BME280;53333;51.976;20.144;2022-08-25T13:33:49;100279.34;;;34.26;24.58
36664;BME280;53333;51.976;20.144;2022-08-25T13:36:28;100278.34;;;34.14;24.94
36664;BME280;53333;51.976;20.144;2022-08-25T13:39:30;100276.94;;;34.05;25.52
36664;BME280;53333;51.976;20.144;2022-08-25T13:42:28;100276.84;;;33.93;26.04
36664;BME280;53333;51.976;20.144;2022-08-25T13:45:07;100274.56;;;33.83;25.84
36664;BME280;53333;51.976;20.144;2022-08-25T13:47:43;100272.47;;;33.78;26.88
36664;BME280;53333;51.976;20.144;2022-08-25T13:50:20;100267.41;;;33.69;24.86